< Cyclone 201215 2012 Season Cyclone 201303 >
Cyclone 201216 (Lua)
General InformationTrack Information on Google MapsDetailed Wind InformationList of All Images || ResourceGoogle EarthGE AnimationAtom FeedGeoJSON
Detalied Best Track (Time Zone = UTC)
Year Month Day Hour Lat. Long. Pressure (hPa) Wind (kt) Class Image Chart
2012 3 9 00 -13.6 111.3 999 25 2 Image --
2012 3 10 00 -16.4 112.0 999 20 2 Image --
2012 3 10 05 -16.2 112.7 999.5 25 2 Image --
2012 3 10 06 -17.4 113.0 1000 20 2 Image --
2012 3 10 12 -18.4 114.0 1000 20 2 Image --
2012 3 10 18 -18.3 114.2 1000 20 2 Image --
2012 3 11 00 -18.2 114.3 1001 25 2 Image --
2012 3 11 06 -18.1 114.5 1001 25 2 Image --
2012 3 11 12 -18.1 114.7 1001 25 2 Image --
2012 3 11 18 -18.2 114.8 998 25 2 Image --
2012 3 12 00 -18.2 114.9 996 25 2 Image --
2012 3 12 06 -18.3 115.0 996 25 2 Image --
2012 3 12 12 -18.4 115.0 996 25 2 Image --
2012 3 12 18 -18.5 115.1 996 25 2 Image --
2012 3 13 00 -18.7 115.3 996 30 2 Image --
2012 3 13 06 -18.6 114.8 996 30 2 Image --
2012 3 13 09 -18.1 114.8 989 35 3 Image --
2012 3 13 12 -18.1 114.0 996 30 2 Image --
2012 3 13 15 -17.8 114.1 992 35 3 Image --
2012 3 13 18 -17.2 113.3 996 30 2 Image --
2012 3 14 00 -16.6 112.9 993 35 3 Image --
2012 3 14 03 -16.4 112.8 993 40 3 Image --
2012 3 14 06 -16.0 113.0 985 45 3 Image --
2012 3 14 09 -15.8 113.0 985 50 4 Image --
2012 3 14 12 -15.5 112.9 980 50 4 Image --
2012 3 14 15 -15.5 113.0 980 50 4 Image --
2012 3 14 18 -15.5 113.1 975 55 4 Image --
2012 3 14 21 -15.5 113.1 973 55 4 Image --
2012 3 14 22 -15.5 113.2 971.5 55 0 Image --
2012 3 15 00 -15.6 113.3 970 55 4 Image --
2012 3 15 03 -15.5 113.3 973 55 4 Image --
2012 3 15 06 -15.4 113.5 965 55 4 Image --
2012 3 15 09 -15.3 113.4 970 60 4 Image --
2012 3 15 12 -15.3 113.8 960 60 4 Image --
2012 3 15 15 -15.3 114.4 970 60 4 Image --
2012 3 15 18 -15.5 114.9 955 65 5 Image --
2012 3 15 21 -15.8 115.4 970 60 4 Image --
2012 3 16 00 -16.0 115.8 950 65 5 Image --
2012 3 16 03 -16.3 116.3 962 70 5 Image --
2012 3 16 06 -16.4 116.9 945 70 5 Image --
2012 3 16 09 -16.7 117.2 940 80 5 Image --
2012 3 16 12 -16.7 118.0 940 75 5 Image --
2012 3 16 15 -17.1 118.4 935 85 5 Image --
2012 3 16 18 -17.5 118.9 935 85 5 Image --
2012 3 16 20 -17.8 119.0 930 90 5 Image --
2012 3 16 21 -17.8 119.1 930 90 0 Image --
2012 3 16 22 -18.1 119.4 930 90 5 Image --
2012 3 16 23 -18.3 119.5 930 90 5 Image --
2012 3 17 00 -18.4 119.5 935 85 5 Image --
2012 3 17 01 -18.7 119.7 930 90 5 Image --
2012 3 17 02 -18.9 119.7 930 90 5 Image --
2012 3 17 03 -18.9 119.7 930 90 0 Image --
2012 3 17 04 -19.3 119.8 930 90 5 Image --
2012 3 17 05 -19.5 119.9 930 90 5 Image --
2012 3 17 06 -19.6 119.9 935 85 5 Image --
2012 3 17 07 -19.9 120.0 935 85 5 Image --
2012 3 17 08 -20.1 120.1 940 80 5 Image --
2012 3 17 09 -20.3 120.2 940 75 5 Image --
2012 3 17 10 -20.6 120.3 945 75 5 Image --
2012 3 17 11 -21.0 120.3 952 70 5 Image --
2012 3 17 12 -21.3 120.4 964 70 5 Image --
2012 3 17 13 -21.6 120.3 966 60 4 Image --
2012 3 17 15 -21.3 120.4 973 52.5 0 Image --
2012 3 17 18 -23.4 120.4 980 45 3 Image --
2012 3 17 21 -23.8 120.4 984.5 37.5 0 Image --
2012 3 18 00 -24.2 120.4 989 30 2 Image --
2012 3 18 03 -25.9 120.3 989 30 2 Image --
2012 3 18 06 -27.0 120.4 995 25 2 Image --
< Cyclone 201215 2012 Season Cyclone 201303 >

Help